Connecticut River @ West Lebanon, Nh

Connecticut River at West Lebanon
 Total Drainage Area: 4,092 sq. miles 
 Drainage Area Controlled by Corps Dams: 126 sq. miles (3%) 
 Warning Flow/Stage: 29,200 cfs / 14.0 feet 
 Flood Flow/Stage: 64,200 cfs / 22.0 feet 
Date Time
(Eastern)
Stage
(ft)
Flow
(cfs)
CSM
(cfs / sq. mi.)
Jan-31 02:30 pm 7.26 7,386 1.8
Jan-31 01:30 pm 7.16 7,135 1.7
Jan-31 12:30 pm 7.15 7,111 1.7
Jan-31 11:30 am 7.16 7,135 1.7
Jan-31 10:30 am 7.14 7,086 1.7
Jan-31 09:30 am 7.15 7,111 1.7
Jan-31 08:30 am 7.14 7,086 1.7
Jan-31 07:30 am 7.10 6,986 1.7
Jan-31 06:30 am 6.93 6,570 1.6
Jan-31 05:30 am 6.12 4,719 1.2
Jan-31 04:30 am 4.75 2,157 .5
Jan-31 03:30 am 4.78 2,201 .5
Jan-31 02:30 am 4.86 2,322 .6
Jan-31 01:30 am 5.16 2,810 .7
Jan-31 12:30 am 6.10 4,676 1.1
Jan-30 11:30 pm 7.18 7,185 1.8
Jan-30 10:30 pm 7.24 7,336 1.8
Jan-30 09:30 pm 7.41 7,767 1.9
Jan-30 08:30 pm 8.02 9,373 2.3
Jan-30 07:30 pm 8.81 11,586 2.8
Jan-30 06:30 pm 8.78 11,499 2.8
Jan-30 05:30 pm 8.62 11,040 2.7
Jan-30 04:30 pm 8.14 9,700 2.4
Jan-30 03:30 pm 7.19 7,210 1.8
Jan-30 02:30 pm 7.19 7,210 1.8
Report Generated January 31, 2023 08:16 pm